sensor_id;sensor_type;location;lat;lon;timestamp;P1;durP1;ratioP1;P2;durP2;ratioP2
31680;SDS011;18281;51.364;9.566;2023-06-14T00:00:50;2.75;;;2.30;;
31680;SDS011;18281;51.364;9.566;2023-06-14T00:03:17;4.80;;;2.28;;
31680;SDS011;18281;51.364;9.566;2023-06-14T00:08:13;4.32;;;2.10;;
31680;SDS011;18281;51.364;9.566;2023-06-14T00:10:39;3.83;;;2.30;;
31680;SDS011;18281;51.364;9.566;2023-06-14T00:13:07;2.65;;;2.45;;
31680;SDS011;18281;51.364;9.566;2023-06-14T00:15:35;2.83;;;2.15;;
31680;SDS011;18281;51.364;9.566;2023-06-14T00:18:01;3.95;;;2.20;;
31680;SDS011;18281;51.364;9.566;2023-06-14T00:20:27;4.35;;;2.20;;
31680;SDS011;18281;51.364;9.566;2023-06-14T00:22:54;2.25;;;2.05;;
31680;SDS011;18281;51.364;9.566;2023-06-14T00:25:22;6.95;;;1.92;;
31680;SDS011;18281;51.364;9.566;2023-06-14T00:27:49;4.47;;;2.22;;
31680;SDS011;18281;51.364;9.566;2023-06-14T00:30:14;7.43;;;2.30;;
31680;SDS011;18281;51.364;9.566;2023-06-14T00:32:40;4.68;;;2.10;;
31680;SDS011;18281;51.364;9.566;2023-06-14T00:35:07;5.50;;;2.10;;
31680;SDS011;18281;51.364;9.566;2023-06-14T00:37:33;3.72;;;2.13;;
31680;SDS011;18281;51.364;9.566;2023-06-14T00:39:58;2.97;;;2.00;;
31680;SDS011;18281;51.364;9.566;2023-06-14T00:42:27;2.13;;;1.90;;
31680;SDS011;18281;51.364;9.566;2023-06-14T00:44:53;3.00;;;1.90;;
31680;SDS011;18281;51.364;9.566;2023-06-14T00:47:18;4.40;;;2.50;;
31680;SDS011;18281;51.364;9.566;2023-06-14T00:49:47;2.45;;;2.00;;
31680;SDS011;18281;51.364;9.566;2023-06-14T00:52:14;4.25;;;2.00;;
31680;SDS011;18281;51.364;9.566;2023-06-14T00:54:41;5.20;;;2.05;;
31680;SDS011;18281;51.364;9.566;2023-06-14T00:57:08;5.65;;;2.15;;
31680;SDS011;18281;51.364;9.566;2023-06-14T00:59:36;3.80;;;1.73;;
31680;SDS011;18281;51.364;9.566;2023-06-14T01:02:06;3.40;;;1.83;;
31680;SDS011;18281;51.364;9.566;2023-06-14T01:04:32;2.53;;;2.00;;
31680;SDS011;18281;51.364;9.566;2023-06-14T01:07:23;4.45;;;1.95;;
31680;SDS011;18281;51.364;9.566;2023-06-14T01:15:33;2.40;;;2.05;;
31680;SDS011;18281;51.364;9.566;2023-06-14T01:18:00;3.40;;;2.00;;
31680;SDS011;18281;51.364;9.566;2023-06-14T01:20:28;3.88;;;2.00;;
31680;SDS011;18281;51.364;9.566;2023-06-14T01:22:55;5.13;;;2.10;;
31680;SDS011;18281;51.364;9.566;2023-06-14T01:25:21;4.55;;;1.90;;
31680;SDS011;18281;51.364;9.566;2023-06-14T01:27:48;4.50;;;1.90;;
31680;SDS011;18281;51.364;9.566;2023-06-14T01:30:16;5.22;;;2.30;;
31680;SDS011;18281;51.364;9.566;2023-06-14T01:32:42;2.35;;;1.77;;
31680;SDS011;18281;51.364;9.566;2023-06-14T01:35:08;4.53;;;2.20;;
31680;SDS011;18281;51.364;9.566;2023-06-14T01:37:34;3.58;;;1.80;;
31680;SDS011;18281;51.364;9.566;2023-06-14T01:40:02;3.25;;;1.88;;
31680;SDS011;18281;51.364;9.566;2023-06-14T01:42:31;5.40;;;1.95;;
31680;SDS011;18281;51.364;9.566;2023-06-14T01:45:00;2.63;;;1.83;;
31680;SDS011;18281;51.364;9.566;2023-06-14T01:47:27;3.58;;;1.95;;
31680;SDS011;18281;51.364;9.566;2023-06-14T01:49:52;2.58;;;1.80;;
31680;SDS011;18281;51.364;9.566;2023-06-14T01:52:18;4.75;;;2.25;;
31680;SDS011;18281;51.364;9.566;2023-06-14T01:54:44;1.70;;;1.60;;
31680;SDS011;18281;51.364;9.566;2023-06-14T01:57:11;2.60;;;2.05;;
31680;SDS011;18281;51.364;9.566;2023-06-14T01:59:37;4.32;;;1.90;;
31680;SDS011;18281;51.364;9.566;2023-06-14T02:02:02;7.75;;;3.22;;
31680;SDS011;18281;51.364;9.566;2023-06-14T02:04:28;1.77;;;1.58;;
31680;SDS011;18281;51.364;9.566;2023-06-14T02:06:53;4.88;;;2.10;;
31680;SDS011;18281;51.364;9.566;2023-06-14T02:09:19;2.28;;;1.77;;
31680;SDS011;18281;51.364;9.566;2023-06-14T02:11:44;3.63;;;2.00;;
31680;SDS011;18281;51.364;9.566;2023-06-14T02:14:10;2.70;;;2.03;;
31680;SDS011;18281;51.364;9.566;2023-06-14T02:16:36;4.65;;;1.98;;
31680;SDS011;18281;51.364;9.566;2023-06-14T02:19:03;2.00;;;1.80;;
31680;SDS011;18281;51.364;9.566;2023-06-14T02:21:29;3.25;;;1.70;;
31680;SDS011;18281;51.364;9.566;2023-06-14T02:23:55;7.78;;;2.28;;
31680;SDS011;18281;51.364;9.566;2023-06-14T02:26:20;2.72;;;2.10;;
31680;SDS011;18281;51.364;9.566;2023-06-14T02:28:47;6.85;;;1.80;;
31680;SDS011;18281;51.364;9.566;2023-06-14T02:31:13;3.72;;;2.20;;
31680;SDS011;18281;51.364;9.566;2023-06-14T02:33:38;6.60;;;2.10;;
31680;SDS011;18281;51.364;9.566;2023-06-14T02:36:04;4.78;;;2.10;;
31680;SDS011;18281;51.364;9.566;2023-06-14T02:38:30;4.50;;;2.00;;
31680;SDS011;18281;51.364;9.566;2023-06-14T02:40:56;4.38;;;1.80;;
31680;SDS011;18281;51.364;9.566;2023-06-14T02:43:22;3.33;;;2.65;;
31680;SDS011;18281;51.364;9.566;2023-06-14T02:45:47;5.90;;;1.92;;
31680;SDS011;18281;51.364;9.566;2023-06-14T02:48:13;2.70;;;2.20;;
31680;SDS011;18281;51.364;9.566;2023-06-14T02:50:38;2.70;;;2.00;;
31680;SDS011;18281;51.364;9.566;2023-06-14T02:53:03;2.17;;;1.98;;
31680;SDS011;18281;51.364;9.566;2023-06-14T02:55:29;6.68;;;2.28;;
31680;SDS011;18281;51.364;9.566;2023-06-14T02:57:54;2.08;;;1.98;;
31680;SDS011;18281;51.364;9.566;2023-06-14T03:00:19;3.83;;;2.13;;
31680;SDS011;18281;51.364;9.566;2023-06-14T03:02:45;2.45;;;2.10;;
31680;SDS011;18281;51.364;9.566;2023-06-14T03:05:10;4.47;;;1.80;;
31680;SDS011;18281;51.364;9.566;2023-06-14T03:07:36;2.58;;;1.90;;
31680;SDS011;18281;51.364;9.566;2023-06-14T03:10:07;3.60;;;2.05;;
31680;SDS011;18281;51.364;9.566;2023-06-14T03:12:34;3.35;;;2.00;;
31680;SDS011;18281;51.364;9.566;2023-06-14T03:15:00;2.75;;;2.10;;
31680;SDS011;18281;51.364;9.566;2023-06-14T03:17:29;2.42;;;2.17;;
31680;SDS011;18281;51.364;9.566;2023-06-14T03:19:58;3.30;;;2.08;;
31680;SDS011;18281;51.364;9.566;2023-06-14T03:22:24;3.38;;;1.80;;
31680;SDS011;18281;51.364;9.566;2023-06-14T03:24:50;3.47;;;1.98;;
31680;SDS011;18281;51.364;9.566;2023-06-14T03:27:16;3.42;;;2.10;;
31680;SDS011;18281;51.364;9.566;2023-06-14T03:29:42;2.38;;;1.70;;
31680;SDS011;18281;51.364;9.566;2023-06-14T03:32:07;3.08;;;1.88;;
31680;SDS011;18281;51.364;9.566;2023-06-14T03:34:33;1.83;;;1.55;;
31680;SDS011;18281;51.364;9.566;2023-06-14T03:36:58;4.35;;;2.05;;
31680;SDS011;18281;51.364;9.566;2023-06-14T03:39:24;3.67;;;2.33;;
31680;SDS011;18281;51.364;9.566;2023-06-14T03:41:49;6.45;;;2.65;;
31680;SDS011;18281;51.364;9.566;2023-06-14T03:44:16;2.67;;;2.10;;
31680;SDS011;18281;51.364;9.566;2023-06-14T03:46:43;4.50;;;2.47;;
31680;SDS011;18281;51.364;9.566;2023-06-14T03:49:08;4.75;;;1.83;;
31680;SDS011;18281;51.364;9.566;2023-06-14T03:51:34;2.85;;;2.05;;
31680;SDS011;18281;51.364;9.566;2023-06-14T03:54:00;6.63;;;2.20;;
31680;SDS011;18281;51.364;9.566;2023-06-14T03:56:26;3.47;;;2.10;;
31680;SDS011;18281;51.364;9.566;2023-06-14T03:58:52;1.70;;;1.60;;
31680;SDS011;18281;51.364;9.566;2023-06-14T04:01:17;2.00;;;1.73;;
31680;SDS011;18281;51.364;9.566;2023-06-14T04:03:42;3.03;;;2.00;;
31680;SDS011;18281;51.364;9.566;2023-06-14T04:06:08;2.35;;;2.15;;
31680;SDS011;18281;51.364;9.566;2023-06-14T04:08:33;2.00;;;1.85;;
31680;SDS011;18281;51.364;9.566;2023-06-14T04:10:59;2.78;;;1.80;;
31680;SDS011;18281;51.364;9.566;2023-06-14T04:13:25;3.58;;;2.05;;
31680;SDS011;18281;51.364;9.566;2023-06-14T04:15:51;2.55;;;1.95;;
31680;SDS011;18281;51.364;9.566;2023-06-14T04:18:16;3.38;;;2.28;;
31680;SDS011;18281;51.364;9.566;2023-06-14T04:20:42;5.97;;;2.25;;
31680;SDS011;18281;51.364;9.566;2023-06-14T04:23:14;4.70;;;1.95;;
31680;SDS011;18281;51.364;9.566;2023-06-14T04:25:40;3.83;;;2.05;;
31680;SDS011;18281;51.364;9.566;2023-06-14T04:28:09;3.42;;;1.77;;
31680;SDS011;18281;51.364;9.566;2023-06-14T04:30:36;6.18;;;2.13;;
31680;SDS011;18281;51.364;9.566;2023-06-14T04:33:03;2.70;;;1.90;;
31680;SDS011;18281;51.364;9.566;2023-06-14T04:35:30;3.47;;;2.25;;
31680;SDS011;18281;51.364;9.566;2023-06-14T04:37:57;3.92;;;1.95;;
31680;SDS011;18281;51.364;9.566;2023-06-14T04:40:23;2.38;;;2.10;;
31680;SDS011;18281;51.364;9.566;2023-06-14T04:42:49;3.25;;;1.77;;
31680;SDS011;18281;51.364;9.566;2023-06-14T04:45:16;2.55;;;2.15;;
31680;SDS011;18281;51.364;9.566;2023-06-14T04:47:41;2.90;;;1.90;;
31680;SDS011;18281;51.364;9.566;2023-06-14T04:50:08;6.22;;;1.88;;
31680;SDS011;18281;51.364;9.566;2023-06-14T04:52:35;2.33;;;2.13;;
31680;SDS011;18281;51.364;9.566;2023-06-14T04:55:00;2.33;;;1.90;;
31680;SDS011;18281;51.364;9.566;2023-06-14T04:57:26;4.28;;;1.70;;
31680;SDS011;18281;51.364;9.566;2023-06-14T04:59:52;3.00;;;1.85;;
31680;SDS011;18281;51.364;9.566;2023-06-14T05:02:21;5.32;;;1.80;;
31680;SDS011;18281;51.364;9.566;2023-06-14T05:04:47;4.25;;;1.70;;
31680;SDS011;18281;51.364;9.566;2023-06-14T05:07:13;2.85;;;1.60;;
31680;SDS011;18281;51.364;9.566;2023-06-14T05:09:39;1.75;;;1.65;;
31680;SDS011;18281;51.364;9.566;2023-06-14T05:12:04;3.58;;;1.60;;
31680;SDS011;18281;51.364;9.566;2023-06-14T05:14:32;1.80;;;1.50;;
31680;SDS011;18281;51.364;9.566;2023-06-14T05:16:58;2.75;;;1.52;;
31680;SDS011;18281;51.364;9.566;2023-06-14T05:19:23;2.40;;;1.77;;
31680;SDS011;18281;51.364;9.566;2023-06-14T05:21:49;3.42;;;1.75;;
31680;SDS011;18281;51.364;9.566;2023-06-14T05:24:14;2.22;;;1.52;;
31680;SDS011;18281;51.364;9.566;2023-06-14T05:26:42;3.40;;;1.65;;
31680;SDS011;18281;51.364;9.566;2023-06-14T05:29:07;12.60;;;1.42;;
31680;SDS011;18281;51.364;9.566;2023-06-14T05:31:32;2.35;;;1.65;;
31680;SDS011;18281;51.364;9.566;2023-06-14T05:33:58;2.47;;;1.08;;
31680;SDS011;18281;51.364;9.566;2023-06-14T05:36:23;3.35;;;1.40;;
31680;SDS011;18281;51.364;9.566;2023-06-14T05:38:49;6.30;;;1.60;;
31680;SDS011;18281;51.364;9.566;2023-06-14T05:41:22;4.20;;;1.52;;
31680;SDS011;18281;51.364;9.566;2023-06-14T05:43:50;3.08;;;1.40;;
31680;SDS011;18281;51.364;9.566;2023-06-14T05:46:15;3.40;;;1.33;;
31680;SDS011;18281;51.364;9.566;2023-06-14T05:48:41;1.45;;;1.30;;
31680;SDS011;18281;51.364;9.566;2023-06-14T05:51:06;3.30;;;2.17;;
31680;SDS011;18281;51.364;9.566;2023-06-14T05:53:33;3.38;;;1.30;;
31680;SDS011;18281;51.364;9.566;2023-06-14T05:55:59;3.30;;;1.50;;
31680;SDS011;18281;51.364;9.566;2023-06-14T05:58:24;2.22;;;1.50;;
31680;SDS011;18281;51.364;9.566;2023-06-14T06:00:50;3.70;;;1.58;;
31680;SDS011;18281;51.364;9.566;2023-06-14T06:03:15;2.53;;;1.35;;
31680;SDS011;18281;51.364;9.566;2023-06-14T06:05:41;5.68;;;1.13;;
31680;SDS011;18281;51.364;9.566;2023-06-14T06:08:06;4.35;;;1.55;;
31680;SDS011;18281;51.364;9.566;2023-06-14T06:10:32;1.95;;;1.70;;
31680;SDS011;18281;51.364;9.566;2023-06-14T06:12:57;2.08;;;1.30;;
31680;SDS011;18281;51.364;9.566;2023-06-14T06:15:23;3.03;;;1.20;;
31680;SDS011;18281;51.364;9.566;2023-06-14T06:17:48;3.10;;;2.08;;
31680;SDS011;18281;51.364;9.566;2023-06-14T06:20:14;3.40;;;1.65;;
31680;SDS011;18281;51.364;9.566;2023-06-14T06:22:39;1.90;;;1.30;;
31680;SDS011;18281;51.364;9.566;2023-06-14T06:25:05;5.90;;;1.80;;
31680;SDS011;18281;51.364;9.566;2023-06-14T06:27:31;1.75;;;1.30;;
31680;SDS011;18281;51.364;9.566;2023-06-14T06:29:57;2.05;;;1.40;;
31680;SDS011;18281;51.364;9.566;2023-06-14T06:32:22;4.35;;;1.52;;
31680;SDS011;18281;51.364;9.566;2023-06-14T06:34:48;10.20;;;2.75;;
31680;SDS011;18281;51.364;9.566;2023-06-14T06:37:13;7.63;;;2.10;;
31680;SDS011;18281;51.364;9.566;2023-06-14T06:39:39;10.48;;;1.80;;
31680;SDS011;18281;51.364;9.566;2023-06-14T06:42:04;6.88;;;2.00;;
31680;SDS011;18281;51.364;9.566;2023-06-14T06:44:31;4.20;;;1.83;;
31680;SDS011;18281;51.364;9.566;2023-06-14T06:46:57;1.98;;;1.63;;
31680;SDS011;18281;51.364;9.566;2023-06-14T06:49:23;4.10;;;1.70;;
31680;SDS011;18281;51.364;9.566;2023-06-14T06:52:09;1.98;;;1.77;;
31680;SDS011;18281;51.364;9.566;2023-06-14T06:54:34;1.70;;;1.50;;
31680;SDS011;18281;51.364;9.566;2023-06-14T06:56:59;2.47;;;1.52;;
31680;SDS011;18281;51.364;9.566;2023-06-14T06:59:26;2.20;;;1.70;;
31680;SDS011;18281;51.364;9.566;2023-06-14T07:01:52;5.03;;;1.50;;
31680;SDS011;18281;51.364;9.566;2023-06-14T07:04:17;9.85;;;2.00;;
31680;SDS011;18281;51.364;9.566;2023-06-14T07:06:43;5.97;;;1.55;;
31680;SDS011;18281;51.364;9.566;2023-06-14T07:09:09;1.63;;;1.35;;
31680;SDS011;18281;51.364;9.566;2023-06-14T07:11:39;6.20;;;2.00;;
31680;SDS011;18281;51.364;9.566;2023-06-14T07:14:05;1.80;;;1.70;;
31680;SDS011;18281;51.364;9.566;2023-06-14T07:16:30;1.85;;;1.67;;
31680;SDS011;18281;51.364;9.566;2023-06-14T07:18:56;3.70;;;1.60;;
31680;SDS011;18281;51.364;9.566;2023-06-14T07:21:21;4.60;;;1.80;;
31680;SDS011;18281;51.364;9.566;2023-06-14T07:23:47;4.00;;;1.60;;
31680;SDS011;18281;51.364;9.566;2023-06-14T07:26:12;2.05;;;1.63;;
31680;SDS011;18281;51.364;9.566;2023-06-14T07:28:37;2.13;;;1.70;;
31680;SDS011;18281;51.364;9.566;2023-06-14T07:31:04;4.10;;;1.48;;
31680;SDS011;18281;51.364;9.566;2023-06-14T07:33:30;5.70;;;2.63;;
31680;SDS011;18281;51.364;9.566;2023-06-14T07:35:55;4.85;;;1.70;;
31680;SDS011;18281;51.364;9.566;2023-06-14T07:38:20;4.65;;;1.90;;
31680;SDS011;18281;51.364;9.566;2023-06-14T07:40:46;3.35;;;1.60;;
31680;SDS011;18281;51.364;9.566;2023-06-14T07:43:11;2.30;;;1.60;;
31680;SDS011;18281;51.364;9.566;2023-06-14T07:45:37;2.00;;;1.80;;
31680;SDS011;18281;51.364;9.566;2023-06-14T07:48:02;3.05;;;1.95;;
31680;SDS011;18281;51.364;9.566;2023-06-14T07:50:28;1.95;;;1.65;;
31680;SDS011;18281;51.364;9.566;2023-06-14T07:52:54;3.10;;;1.73;;
31680;SDS011;18281;51.364;9.566;2023-06-14T07:55:19;3.22;;;1.70;;
31680;SDS011;18281;51.364;9.566;2023-06-14T07:57:44;5.55;;;1.98;;
31680;SDS011;18281;51.364;9.566;2023-06-14T08:00:10;9.13;;;1.90;;
31680;SDS011;18281;51.364;9.566;2023-06-14T08:02:41;6.50;;;1.80;;
31680;SDS011;18281;51.364;9.566;2023-06-14T08:05:08;4.00;;;2.30;;
31680;SDS011;18281;51.364;9.566;2023-06-14T08:07:35;4.63;;;1.70;;
31680;SDS011;18281;51.364;9.566;2023-06-14T08:10:01;2.25;;;2.05;;
31680;SDS011;18281;51.364;9.566;2023-06-14T08:12:26;2.45;;;1.60;;
31680;SDS011;18281;51.364;9.566;2023-06-14T08:14:51;2.03;;;1.73;;
31680;SDS011;18281;51.364;9.566;2023-06-14T08:17:17;1.92;;;1.83;;
31680;SDS011;18281;51.364;9.566;2023-06-14T08:19:42;5.40;;;2.08;;
31680;SDS011;18281;51.364;9.566;2023-06-14T08:22:08;1.85;;;1.70;;
31680;SDS011;18281;51.364;9.566;2023-06-14T08:24:36;3.65;;;1.67;;
31680;SDS011;18281;51.364;9.566;2023-06-14T08:27:02;2.95;;;1.80;;
31680;SDS011;18281;51.364;9.566;2023-06-14T08:29:27;2.13;;;1.80;;
31680;SDS011;18281;51.364;9.566;2023-06-14T08:31:54;6.07;;;1.88;;
31680;SDS011;18281;51.364;9.566;2023-06-14T08:34:20;2.95;;;2.13;;
31680;SDS011;18281;51.364;9.566;2023-06-14T08:36:45;5.40;;;1.90;;
31680;SDS011;18281;51.364;9.566;2023-06-14T08:39:11;7.30;;;1.80;;
31680;SDS011;18281;51.364;9.566;2023-06-14T08:41:36;3.38;;;1.83;;
31680;SDS011;18281;51.364;9.566;2023-06-14T08:44:02;1.92;;;1.70;;
31680;SDS011;18281;51.364;9.566;2023-06-14T08:46:28;3.97;;;2.00;;
31680;SDS011;18281;51.364;9.566;2023-06-14T08:48:59;2.90;;;1.63;;
31680;SDS011;18281;51.364;9.566;2023-06-14T08:51:26;2.78;;;1.67;;
31680;SDS011;18281;51.364;9.566;2023-06-14T08:53:59;3.80;;;1.92;;
31680;SDS011;18281;51.364;9.566;2023-06-14T08:56:26;2.58;;;1.92;;
31680;SDS011;18281;51.364;9.566;2023-06-14T08:58:53;3.13;;;1.50;;
31680;SDS011;18281;51.364;9.566;2023-06-14T09:01:19;2.35;;;2.10;;
31680;SDS011;18281;51.364;9.566;2023-06-14T09:03:46;2.85;;;2.10;;
31680;SDS011;18281;51.364;9.566;2023-06-14T09:06:13;2.63;;;1.75;;
31680;SDS011;18281;51.364;9.566;2023-06-14T09:08:40;2.72;;;1.77;;
31680;SDS011;18281;51.364;9.566;2023-06-14T09:11:08;3.08;;;2.08;;
31680;SDS011;18281;51.364;9.566;2023-06-14T09:13:36;5.32;;;2.03;;
31680;SDS011;18281;51.364;9.566;2023-06-14T09:16:01;2.03;;;1.63;;
31680;SDS011;18281;51.364;9.566;2023-06-14T09:18:34;1.83;;;1.67;;
31680;SDS011;18281;51.364;9.566;2023-06-14T09:24:26;1.75;;;1.60;;
31680;SDS011;18281;51.364;9.566;2023-06-14T09:26:51;2.28;;;1.77;;
31680;SDS011;18281;51.364;9.566;2023-06-14T09:29:17;2.72;;;1.63;;
31680;SDS011;18281;51.364;9.566;2023-06-14T09:31:43;1.85;;;1.75;;
31680;SDS011;18281;51.364;9.566;2023-06-14T09:34:11;4.35;;;2.00;;
31680;SDS011;18281;51.364;9.566;2023-06-14T09:36:37;3.60;;;1.92;;
31680;SDS011;18281;51.364;9.566;2023-06-14T09:39:04;11.00;;;2.05;;
31680;SDS011;18281;51.364;9.566;2023-06-14T09:41:40;2.28;;;2.08;;
31680;SDS011;18281;51.364;9.566;2023-06-14T09:44:09;4.55;;;2.08;;
31680;SDS011;18281;51.364;9.566;2023-06-14T09:46:36;3.30;;;1.73;;
31680;SDS011;18281;51.364;9.566;2023-06-14T09:49:03;5.78;;;1.80;;
31680;SDS011;18281;51.364;9.566;2023-06-14T09:51:29;2.22;;;1.73;;
31680;SDS011;18281;51.364;9.566;2023-06-14T09:53:59;4.60;;;2.60;;
31680;SDS011;18281;51.364;9.566;2023-06-14T09:58:53;3.03;;;2.20;;
31680;SDS011;18281;51.364;9.566;2023-06-14T10:01:20;2.33;;;1.98;;
31680;SDS011;18281;51.364;9.566;2023-06-14T10:03:46;11.40;;;2.22;;
31680;SDS011;18281;51.364;9.566;2023-06-14T10:06:14;5.30;;;2.20;;
31680;SDS011;18281;51.364;9.566;2023-06-14T10:08:40;12.25;;;8.70;;
31680;SDS011;18281;51.364;9.566;2023-06-14T10:11:06;15.60;;;8.57;;
31680;SDS011;18281;51.364;9.566;2023-06-14T10:13:32;4.78;;;3.83;;
31680;SDS011;18281;51.364;9.566;2023-06-14T10:16:07;7.47;;;2.40;;
31680;SDS011;18281;51.364;9.566;2023-06-14T10:18:59;4.25;;;3.00;;
31680;SDS011;18281;51.364;9.566;2023-06-14T10:24:15;4.85;;;2.42;;
31680;SDS011;18281;51.364;9.566;2023-06-14T10:26:53;28.15;;;13.95;;
31680;SDS011;18281;51.364;9.566;2023-06-14T10:29:19;21.95;;;10.10;;
31680;SDS011;18281;51.364;9.566;2023-06-14T10:31:46;17.38;;;8.55;;
31680;SDS011;18281;51.364;9.566;2023-06-14T10:34:20;11.80;;;6.55;;
31680;SDS011;18281;51.364;9.566;2023-06-14T10:39:38;4.38;;;3.20;;
31680;SDS011;18281;51.364;9.566;2023-06-14T10:42:10;4.45;;;2.97;;
31680;SDS011;18281;51.364;9.566;2023-06-14T10:44:43;5.50;;;2.40;;
31680;SDS011;18281;51.364;9.566;2023-06-14T10:47:20;5.53;;;2.10;;
31680;SDS011;18281;51.364;9.566;2023-06-14T10:49:57;2.70;;;1.75;;
31680;SDS011;18281;51.364;9.566;2023-06-14T10:52:28;3.20;;;2.28;;
31680;SDS011;18281;51.364;9.566;2023-06-14T10:55:04;3.63;;;1.98;;
31680;SDS011;18281;51.364;9.566;2023-06-14T10:57:53;3.13;;;1.95;;
31680;SDS011;18281;51.364;9.566;2023-06-14T11:00:27;5.22;;;1.70;;
31680;SDS011;18281;51.364;9.566;2023-06-14T11:05:53;1.65;;;1.55;;
31680;SDS011;18281;51.364;9.566;2023-06-14T11:10:49;8.43;;;1.73;;
31680;SDS011;18281;51.364;9.566;2023-06-14T11:13:18;2.13;;;1.70;;
31680;SDS011;18281;51.364;9.566;2023-06-14T11:15:44;1.67;;;1.30;;
31680;SDS011;18281;51.364;9.566;2023-06-14T11:18:12;2.95;;;1.75;;
31680;SDS011;18281;51.364;9.566;2023-06-14T11:20:39;5.05;;;1.70;;
31680;SDS011;18281;51.364;9.566;2023-06-14T11:23:05;3.25;;;1.85;;
31680;SDS011;18281;51.364;9.566;2023-06-14T11:25:30;1.90;;;1.80;;
31680;SDS011;18281;51.364;9.566;2023-06-14T11:27:56;1.98;;;1.42;;
31680;SDS011;18281;51.364;9.566;2023-06-14T11:30:22;4.43;;;1.67;;
31680;SDS011;18281;51.364;9.566;2023-06-14T11:32:48;4.25;;;1.80;;
31680;SDS011;18281;51.364;9.566;2023-06-14T11:35:15;3.97;;;1.70;;
31680;SDS011;18281;51.364;9.566;2023-06-14T11:37:41;1.80;;;1.50;;
31680;SDS011;18281;51.364;9.566;2023-06-14T11:40:07;7.00;;;1.55;;
31680;SDS011;18281;51.364;9.566;2023-06-14T11:42:35;2.38;;;1.40;;
31680;SDS011;18281;51.364;9.566;2023-06-14T11:45:01;2.17;;;1.70;;
31680;SDS011;18281;51.364;9.566;2023-06-14T11:47:34;4.25;;;1.67;;
31680;SDS011;18281;51.364;9.566;2023-06-14T11:50:04;2.47;;;1.63;;
31680;SDS011;18281;51.364;9.566;2023-06-14T11:52:31;1.50;;;1.40;;
31680;SDS011;18281;51.364;9.566;2023-06-14T11:54:57;1.65;;;1.55;;
31680;SDS011;18281;51.364;9.566;2023-06-14T11:57:23;4.68;;;1.48;;
31680;SDS011;18281;51.364;9.566;2023-06-14T11:59:49;1.95;;;1.52;;
31680;SDS011;18281;51.364;9.566;2023-06-14T12:02:18;3.47;;;1.60;;
31680;SDS011;18281;51.364;9.566;2023-06-14T12:04:47;2.03;;;1.30;;
31680;SDS011;18281;51.364;9.566;2023-06-14T12:09:42;1.75;;;1.65;;
31680;SDS011;18281;51.364;9.566;2023-06-14T12:12:16;3.03;;;1.40;;
31680;SDS011;18281;51.364;9.566;2023-06-14T12:14:42;1.52;;;1.40;;
31680;SDS011;18281;51.364;9.566;2023-06-14T12:17:07;5.15;;;1.80;;
31680;SDS011;18281;51.364;9.566;2023-06-14T12:19:33;1.88;;;1.42;;
31680;SDS011;18281;51.364;9.566;2023-06-14T12:22:06;3.60;;;1.67;;
31680;SDS011;18281;51.364;9.566;2023-06-14T12:24:34;2.83;;;1.67;;
31680;SDS011;18281;51.364;9.566;2023-06-14T12:27:00;1.85;;;1.55;;
31680;SDS011;18281;51.364;9.566;2023-06-14T12:29:28;2.58;;;1.50;;
31680;SDS011;18281;51.364;9.566;2023-06-14T12:31:53;2.88;;;1.55;;
31680;SDS011;18281;51.364;9.566;2023-06-14T12:34:21;2.88;;;1.58;;
31680;SDS011;18281;51.364;9.566;2023-06-14T12:36:47;3.63;;;1.55;;
31680;SDS011;18281;51.364;9.566;2023-06-14T12:39:12;1.40;;;1.30;;
31680;SDS011;18281;51.364;9.566;2023-06-14T12:41:38;1.88;;;1.50;;
31680;SDS011;18281;51.364;9.566;2023-06-14T12:44:06;1.65;;;1.45;;
31680;SDS011;18281;51.364;9.566;2023-06-14T12:46:31;1.48;;;1.30;;
31680;SDS011;18281;51.364;9.566;2023-06-14T12:48:57;3.03;;;1.65;;
31680;SDS011;18281;51.364;9.566;2023-06-14T12:51:22;1.60;;;1.50;;
31680;SDS011;18281;51.364;9.566;2023-06-14T12:53:48;1.58;;;1.40;;
31680;SDS011;18281;51.364;9.566;2023-06-14T12:56:14;4.50;;;1.70;;
31680;SDS011;18281;51.364;9.566;2023-06-14T12:58:40;1.80;;;1.35;;
31680;SDS011;18281;51.364;9.566;2023-06-14T13:01:06;3.65;;;1.20;;
31680;SDS011;18281;51.364;9.566;2023-06-14T13:03:32;2.33;;;1.20;;
31680;SDS011;18281;51.364;9.566;2023-06-14T13:05:58;1.77;;;1.65;;
31680;SDS011;18281;51.364;9.566;2023-06-14T13:08:24;1.35;;;1.25;;
31680;SDS011;18281;51.364;9.566;2023-06-14T13:10:49;2.25;;;1.25;;
31680;SDS011;18281;51.364;9.566;2023-06-14T13:13:14;1.75;;;1.60;;
31680;SDS011;18281;51.364;9.566;2023-06-14T13:15:40;2.33;;;1.42;;
31680;SDS011;18281;51.364;9.566;2023-06-14T13:18:05;3.28;;;1.10;;
31680;SDS011;18281;51.364;9.566;2023-06-14T13:20:31;1.50;;;1.25;;
31680;SDS011;18281;51.364;9.566;2023-06-14T13:22:56;5.70;;;1.20;;
31680;SDS011;18281;51.364;9.566;2023-06-14T13:25:22;1.23;;;1.10;;
31680;SDS011;18281;51.364;9.566;2023-06-14T13:27:48;3.95;;;1.27;;
31680;SDS011;18281;51.364;9.566;2023-06-14T13:30:13;1.38;;;1.27;;
31680;SDS011;18281;51.364;9.566;2023-06-14T13:32:39;1.20;;;1.10;;
31680;SDS011;18281;51.364;9.566;2023-06-14T13:35:04;5.28;;;1.05;;
31680;SDS011;18281;51.364;9.566;2023-06-14T13:37:30;2.25;;;1.10;;
31680;SDS011;18281;51.364;9.566;2023-06-14T13:39:56;4.70;;;1.27;;
31680;SDS011;18281;51.364;9.566;2023-06-14T13:42:21;2.20;;;1.48;;
31680;SDS011;18281;51.364;9.566;2023-06-14T13:44:46;1.35;;;1.10;;
31680;SDS011;18281;51.364;9.566;2023-06-14T13:47:12;2.33;;;1.02;;
31680;SDS011;18281;51.364;9.566;2023-06-14T13:49:37;1.23;;;1.10;;
31680;SDS011;18281;51.364;9.566;2023-06-14T13:52:02;1.20;;;1.02;;
31680;SDS011;18281;51.364;9.566;2023-06-14T13:54:28;2.53;;;1.00;;
31680;SDS011;18281;51.364;9.566;2023-06-14T13:56:53;3.50;;;1.20;;
31680;SDS011;18281;51.364;9.566;2023-06-14T13:59:19;2.58;;;1.30;;
31680;SDS011;18281;51.364;9.566;2023-06-14T14:01:45;3.03;;;1.20;;
31680;SDS011;18281;51.364;9.566;2023-06-14T14:04:10;1.30;;;1.10;;
31680;SDS011;18281;51.364;9.566;2023-06-14T14:06:36;1.90;;;1.10;;
31680;SDS011;18281;51.364;9.566;2023-06-14T14:09:02;1.75;;;1.08;;
31680;SDS011;18281;51.364;9.566;2023-06-14T14:11:28;5.18;;;1.08;;
31680;SDS011;18281;51.364;9.566;2023-06-14T14:13:53;3.13;;;1.10;;
31680;SDS011;18281;51.364;9.566;2023-06-14T14:16:19;2.60;;;0.95;;
31680;SDS011;18281;51.364;9.566;2023-06-14T14:18:45;3.05;;;1.10;;
31680;SDS011;18281;51.364;9.566;2023-06-14T14:21:11;4.72;;;1.30;;
31680;SDS011;18281;51.364;9.566;2023-06-14T14:23:36;2.40;;;1.20;;
31680;SDS011;18281;51.364;9.566;2023-06-14T14:26:02;0.98;;;0.98;;
31680;SDS011;18281;51.364;9.566;2023-06-14T14:28:29;4.60;;;1.20;;
31680;SDS011;18281;51.364;9.566;2023-06-14T14:30:55;1.00;;;1.00;;
31680;SDS011;18281;51.364;9.566;2023-06-14T14:33:20;2.83;;;1.27;;
31680;SDS011;18281;51.364;9.566;2023-06-14T14:35:46;3.65;;;1.08;;
31680;SDS011;18281;51.364;9.566;2023-06-14T14:38:12;1.55;;;1.30;;
31680;SDS011;18281;51.364;9.566;2023-06-14T14:40:38;3.40;;;1.05;;
31680;SDS011;18281;51.364;9.566;2023-06-14T14:43:05;3.42;;;1.10;;
31680;SDS011;18281;51.364;9.566;2023-06-14T14:45:30;3.72;;;1.08;;
31680;SDS011;18281;51.364;9.566;2023-06-14T14:47:56;1.45;;;0.95;;
31680;SDS011;18281;51.364;9.566;2023-06-14T14:50:21;2.55;;;1.20;;
31680;SDS011;18281;51.364;9.566;2023-06-14T14:52:46;0.90;;;0.90;;
31680;SDS011;18281;51.364;9.566;2023-06-14T14:55:11;1.27;;;1.23;;
31680;SDS011;18281;51.364;9.566;2023-06-14T14:57:37;1.98;;;1.17;;
31680;SDS011;18281;51.364;9.566;2023-06-14T15:00:03;1.50;;;0.98;;
31680;SDS011;18281;51.364;9.566;2023-06-14T15:02:30;1.15;;;1.00;;
31680;SDS011;18281;51.364;9.566;2023-06-14T15:04:55;2.25;;;0.82;;
31680;SDS011;18281;51.364;9.566;2023-06-14T15:07:25;0.95;;;0.95;;
31680;SDS011;18281;51.364;9.566;2023-06-14T15:09:51;0.82;;;0.82;;
31680;SDS011;18281;51.364;9.566;2023-06-14T15:12:16;0.95;;;0.95;;